createdAt,value
2023-05-14T00:01:02.640Z,11.68
2023-05-14T00:03:29.140Z,11.79
2023-05-14T00:05:55.571Z,11.71
2023-05-14T00:08:22.014Z,11.52
2023-05-14T00:10:48.418Z,11.53
2023-05-14T00:13:14.812Z,11.49
2023-05-14T00:15:41.376Z,11.43
2023-05-14T00:18:07.993Z,11.53
2023-05-14T00:20:34.477Z,11.57
2023-05-14T00:23:00.955Z,11.49
2023-05-14T00:25:27.516Z,11.56
2023-05-14T00:27:53.942Z,11.37
2023-05-14T00:30:20.492Z,11.33
2023-05-14T00:32:46.952Z,11.45
2023-05-14T00:35:13.408Z,11.38
2023-05-14T00:37:39.914Z,11.44
2023-05-14T00:40:08.507Z,11.35
2023-05-14T00:42:35.026Z,11.24
2023-05-14T00:45:01.471Z,11.22
2023-05-14T00:47:28.021Z,11.29
2023-05-14T00:49:54.511Z,11.32
2023-05-14T00:52:22.008Z,11.28
2023-05-14T00:54:49.096Z,11.26
2023-05-14T00:57:15.575Z,11.29
2023-05-14T00:59:42.687Z,11.12
2023-05-14T01:02:09.193Z,11.07
2023-05-14T01:04:35.655Z,11.06
2023-05-14T01:07:20.873Z,11.18
2023-05-14T01:10:02.727Z,11.08
2023-05-14T01:12:48.627Z,11.01
2023-05-14T01:15:30.821Z,10.96
2023-05-14T01:18:05.592Z,10.85
2023-05-14T01:20:32.079Z,10.83
2023-05-14T01:22:58.575Z,10.97
2023-05-14T01:25:25.909Z,10.98
2023-05-14T01:27:52.197Z,10.95
2023-05-14T01:30:37.832Z,10.90
2023-05-14T01:33:10.554Z,10.72
2023-05-14T01:35:37.292Z,10.73
2023-05-14T01:38:05.131Z,10.74
2023-05-14T01:40:32.339Z,10.76
2023-05-14T01:42:58.885Z,10.61
2023-05-14T01:45:25.388Z,10.40
2023-05-14T01:47:51.992Z,10.50
2023-05-14T01:50:18.656Z,10.48
2023-05-14T01:52:45.456Z,10.57
2023-05-14T01:55:11.928Z,10.54
2023-05-14T01:57:38.347Z,10.56
2023-05-14T02:00:05.593Z,10.51
2023-05-14T02:02:32.045Z,10.48
2023-05-14T02:04:58.484Z,10.53
2023-05-14T02:07:24.943Z,10.44
2023-05-14T02:09:51.358Z,10.35
2023-05-14T02:12:17.726Z,10.33
2023-05-14T02:14:44.141Z,10.36
2023-05-14T02:17:10.581Z,10.26
2023-05-14T02:19:36.991Z,10.26
2023-05-14T02:22:03.488Z,10.16
2023-05-14T02:24:29.978Z,10.23
2023-05-14T02:26:56.372Z,10.12
2023-05-14T02:29:22.799Z,10.12
2023-05-14T02:31:49.345Z,10.23
2023-05-14T02:34:16.228Z,10.08
2023-05-14T02:36:42.660Z,10.15
2023-05-14T02:39:09.126Z,9.99
2023-05-14T02:41:35.716Z,9.95
2023-05-14T02:44:02.199Z,10.07
2023-05-14T02:46:28.717Z,10.01
2023-05-14T02:48:55.202Z,9.89
2023-05-14T02:51:21.833Z,9.89
2023-05-14T02:53:48.504Z,9.86
2023-05-14T02:56:14.953Z,9.83
2023-05-14T02:58:41.536Z,9.94
2023-05-14T03:01:08.596Z,9.88
2023-05-14T03:03:35.687Z,9.89
2023-05-14T03:06:02.382Z,9.99
2023-05-14T03:08:28.832Z,10.07
2023-05-14T03:10:55.391Z,10.11
2023-05-14T03:13:21.817Z,10.03
2023-05-14T03:15:48.504Z,10.01
2023-05-14T03:18:15.066Z,9.80
2023-05-14T03:20:41.920Z,9.69
2023-05-14T03:23:08.346Z,9.54
2023-05-14T03:25:34.768Z,9.67
2023-05-14T03:28:01.247Z,9.58
2023-05-14T03:30:27.718Z,9.67
2023-05-14T03:32:54.326Z,9.54
2023-05-14T03:35:21.018Z,9.46
2023-05-14T03:37:48.245Z,9.43
2023-05-14T03:40:14.708Z,9.39
2023-05-14T03:42:41.116Z,9.40
2023-05-14T03:45:08.238Z,9.23
2023-05-14T03:47:34.696Z,9.31
2023-05-14T03:50:01.183Z,9.25
2023-05-14T03:52:27.572Z,9.39
2023-05-14T03:54:53.975Z,9.44
2023-05-14T03:57:21.019Z,9.54
2023-05-14T03:59:47.429Z,9.46
2023-05-14T04:02:13.882Z,9.42
2023-05-14T04:04:41.023Z,9.51
2023-05-14T04:07:08.486Z,9.44
2023-05-14T04:09:34.895Z,9.27
2023-05-14T04:12:01.326Z,9.37
2023-05-14T04:14:27.717Z,9.20
2023-05-14T04:16:54.136Z,9.22
2023-05-14T04:19:20.692Z,9.64
2023-05-14T04:21:47.142Z,10.17
2023-05-14T04:24:13.554Z,9.85
2023-05-14T04:26:40.013Z,9.72
2023-05-14T04:29:06.464Z,10.59
2023-05-14T04:31:33.191Z,11.40
2023-05-14T04:33:59.677Z,12.10
2023-05-14T04:36:26.239Z,12.60
2023-05-14T04:38:52.704Z,12.95
2023-05-14T04:41:19.192Z,12.91
2023-05-14T04:43:46.986Z,13.12
2023-05-14T04:46:13.866Z,13.26
2023-05-14T04:48:40.363Z,13.33
2023-05-14T04:51:07.262Z,13.23
2023-05-14T04:53:33.799Z,13.15
2023-05-14T04:56:00.260Z,12.95
2023-05-14T04:58:28.830Z,12.78
2023-05-14T05:00:55.291Z,12.30
2023-05-14T05:03:22.123Z,12.31
2023-05-14T05:05:48.596Z,12.48
2023-05-14T05:08:15.069Z,12.48
2023-05-14T05:10:41.488Z,12.72
2023-05-14T05:13:07.869Z,12.91
2023-05-14T05:15:34.255Z,12.94
2023-05-14T05:18:00.793Z,12.63
2023-05-14T05:20:28.211Z,12.44
2023-05-14T05:22:54.782Z,13.01
2023-05-14T05:25:21.431Z,13.29
2023-05-14T05:27:47.877Z,13.46
2023-05-14T05:30:14.318Z,13.63
2023-05-14T05:32:40.929Z,13.54
2023-05-14T05:35:07.664Z,13.76
2023-05-14T05:37:34.194Z,13.54
2023-05-14T05:40:00.643Z,13.35
2023-05-14T05:42:27.136Z,13.69
2023-05-14T05:44:53.546Z,14.07
2023-05-14T05:47:20.025Z,14.02
2023-05-14T05:49:46.486Z,14.37
2023-05-14T05:52:13.203Z,14.62
2023-05-14T05:54:39.846Z,14.72
2023-05-14T05:57:06.263Z,14.97
2023-05-14T05:59:32.806Z,15.35
2023-05-14T06:01:59.269Z,15.57
2023-05-14T06:04:25.689Z,15.18
2023-05-14T06:06:52.061Z,14.65
2023-05-14T06:09:18.674Z,15.26
2023-05-14T06:11:45.114Z,15.75
2023-05-14T06:14:11.621Z,15.96
2023-05-14T06:16:38.174Z,16.01
2023-05-14T06:19:04.787Z,16.45
2023-05-14T06:21:31.343Z,16.24
2023-05-14T06:23:57.800Z,16.64
2023-05-14T06:26:24.198Z,16.85
2023-05-14T06:28:50.605Z,16.87
2023-05-14T06:31:18.132Z,17.01
2023-05-14T06:33:45.134Z,17.24
2023-05-14T06:36:11.686Z,17.25
2023-05-14T06:38:38.134Z,15.95
2023-05-14T06:41:04.840Z,16.02
2023-05-14T06:43:31.288Z,16.66
2023-05-14T06:45:57.814Z,16.42
2023-05-14T06:48:24.403Z,17.14
2023-05-14T06:50:50.905Z,17.57
2023-05-14T06:53:17.438Z,17.93
2023-05-14T06:55:43.868Z,18.21
2023-05-14T06:58:10.353Z,18.42
2023-05-14T07:00:36.794Z,18.80
2023-05-14T07:03:03.352Z,18.82
2023-05-14T07:05:29.898Z,19.11
2023-05-14T07:07:56.378Z,19.35
2023-05-14T07:10:23.162Z,19.24
2023-05-14T07:12:49.886Z,19.48
2023-05-14T07:15:16.622Z,19.79
2023-05-14T07:17:43.105Z,19.27
2023-05-14T07:20:10.011Z,19.61
2023-05-14T07:22:36.474Z,19.67
2023-05-14T07:25:03.143Z,18.81
2023-05-14T07:27:29.596Z,19.53
2023-05-14T07:29:56.082Z,19.77
2023-05-14T07:32:22.530Z,19.34
2023-05-14T07:34:49.006Z,18.91
2023-05-14T07:37:15.453Z,18.93
2023-05-14T07:39:41.951Z,19.59
2023-05-14T07:42:08.424Z,19.39
2023-05-14T07:44:34.891Z,20.11
2023-05-14T07:47:01.368Z,20.64
2023-05-14T07:49:27.817Z,20.80
2023-05-14T07:51:54.271Z,20.85
2023-05-14T07:54:20.799Z,20.05
2023-05-14T07:56:47.213Z,20.59
2023-05-14T07:59:13.773Z,20.91
2023-05-14T08:01:40.543Z,20.61
2023-05-14T08:04:07.033Z,21.21
2023-05-14T08:06:34.104Z,21.27
2023-05-14T08:09:00.635Z,20.54
2023-05-14T08:11:27.058Z,20.53
2023-05-14T08:13:53.508Z,20.67
2023-05-14T08:16:19.981Z,20.06
2023-05-14T08:18:46.448Z,20.49
2023-05-14T08:21:12.926Z,20.24
2023-05-14T08:23:39.347Z,20.49
2023-05-14T08:26:06.044Z,20.40
2023-05-14T08:28:32.550Z,20.52
2023-05-14T08:30:58.989Z,20.82
2023-05-14T08:33:25.450Z,20.42
2023-05-14T08:35:53.246Z,20.69
2023-05-14T08:38:19.685Z,20.52
2023-05-14T08:40:56.389Z,20.56
2023-05-14T08:43:26.437Z,20.66
2023-05-14T08:45:58.126Z,20.91
2023-05-14T08:48:27.022Z,20.46
2023-05-14T08:50:53.612Z,20.95
2023-05-14T08:53:20.339Z,21.11
2023-05-14T08:55:48.057Z,20.54
2023-05-14T08:58:14.531Z,20.65
2023-05-14T09:00:41.108Z,19.75
2023-05-14T09:03:07.831Z,19.87
2023-05-14T09:05:34.471Z,19.95
2023-05-14T09:08:00.954Z,19.37
2023-05-14T09:10:27.517Z,20.18
2023-05-14T09:12:54.320Z,20.37
2023-05-14T09:15:21.078Z,20.08
2023-05-14T09:17:48.568Z,20.48
2023-05-14T09:20:15.278Z,20.53
2023-05-14T09:22:42.048Z,20.90
2023-05-14T09:25:11.917Z,20.95
2023-05-14T09:27:38.870Z,20.92
2023-05-14T09:30:10.682Z,21.46
2023-05-14T09:32:44.250Z,21.56
2023-05-14T09:35:17.042Z,21.56
2023-05-14T09:37:53.632Z,21.58
2023-05-14T09:40:21.701Z,21.83
2023-05-14T09:42:49.311Z,21.61
2023-05-14T09:45:16.465Z,21.49
2023-05-14T09:47:43.180Z,21.59
2023-05-14T09:50:10.003Z,21.67
2023-05-14T09:52:37.291Z,21.69
2023-05-14T09:55:04.175Z,22.01
2023-05-14T09:57:30.886Z,21.95
2023-05-14T09:59:57.326Z,22.20
2023-05-14T10:02:25.089Z,21.38
2023-05-14T10:04:54.405Z,21.27
2023-05-14T10:07:27.423Z,21.42
2023-05-14T10:09:59.315Z,21.44
2023-05-14T10:12:28.910Z,21.12
2023-05-14T10:14:57.677Z,21.81
2023-05-14T10:17:26.404Z,21.98
2023-05-14T10:19:54.740Z,22.21
2023-05-14T10:22:27.489Z,22.41
2023-05-14T10:24:54.428Z,22.07
2023-05-14T10:27:21.560Z,22.26
2023-05-14T10:29:55.447Z,22.53
2023-05-14T10:32:25.102Z,22.56
2023-05-14T10:34:52.634Z,22.41
2023-05-14T10:37:21.715Z,22.44
2023-05-14T10:39:54.033Z,22.60
2023-05-14T10:42:23.112Z,22.86
2023-05-14T10:45:06.357Z,23.07
2023-05-14T10:47:33.964Z,22.77
2023-05-14T10:50:03.765Z,22.55
2023-05-14T10:52:30.972Z,23.13
2023-05-14T10:55:02.658Z,22.95
2023-05-14T10:57:31.828Z,23.13
2023-05-14T11:00:00.356Z,22.88
2023-05-14T11:02:28.916Z,22.68
2023-05-14T11:04:56.402Z,22.61
2023-05-14T11:07:28.595Z,22.41
2023-05-14T11:10:03.436Z,22.09
2023-05-14T11:12:30.257Z,22.19
2023-05-14T11:14:58.203Z,22.04
2023-05-14T11:17:29.003Z,22.36
2023-05-14T11:19:56.041Z,22.84
2023-05-14T11:22:22.777Z,22.64
2023-05-14T11:24:49.544Z,23.14
2023-05-14T11:27:17.295Z,23.52
2023-05-14T11:29:47.745Z,23.03
2023-05-14T11:32:15.348Z,22.92
2023-05-14T11:34:42.845Z,22.81
2023-05-14T11:37:10.409Z,22.83
2023-05-14T11:39:39.672Z,22.81
2023-05-14T11:42:11.873Z,22.36
2023-05-14T11:44:38.855Z,22.36
2023-05-14T11:47:06.354Z,22.47
2023-05-14T11:49:35.480Z,21.98
2023-05-14T11:52:03.494Z,22.04
2023-05-14T11:54:30.492Z,22.19
2023-05-14T11:56:58.005Z,22.53
2023-05-14T11:59:25.753Z,22.70
2023-05-14T12:01:55.181Z,22.76
2023-05-14T12:04:22.944Z,22.72
2023-05-14T12:06:50.362Z,22.26
2023-05-14T12:09:18.072Z,22.20
2023-05-14T12:11:46.716Z,21.94
2023-05-14T12:14:17.937Z,21.64
2023-05-14T12:16:45.149Z,21.57
2023-05-14T12:19:12.593Z,21.28
2023-05-14T12:21:39.472Z,21.57
2023-05-14T12:24:10.658Z,21.39
2023-05-14T12:26:38.745Z,21.42
2023-05-14T12:29:06.933Z,21.85
2023-05-14T12:31:36.575Z,21.96
2023-05-14T12:34:04.212Z,22.26
2023-05-14T12:36:32.589Z,22.68
2023-05-14T12:39:03.643Z,22.73
2023-05-14T12:41:30.879Z,22.72
2023-05-14T12:46:23.785Z,22.43
2023-05-14T12:48:52.353Z,22.62
2023-05-14T12:51:19.777Z,22.36
2023-05-14T12:53:46.214Z,22.30
2023-05-14T12:56:13.825Z,22.30
2023-05-14T12:58:40.313Z,22.16
2023-05-14T13:01:06.847Z,21.79
2023-05-14T13:03:33.363Z,21.76
2023-05-14T13:05:59.804Z,21.26
2023-05-14T13:08:26.255Z,21.14
2023-05-14T13:10:53.900Z,20.59
2023-05-14T13:13:20.299Z,20.60
2023-05-14T13:15:46.897Z,20.74
2023-05-14T13:18:14.155Z,21.07
2023-05-14T13:20:43.241Z,21.28
2023-05-14T13:23:09.846Z,21.01
2023-05-14T13:25:36.317Z,20.81
2023-05-14T13:28:02.826Z,21.12
2023-05-14T13:30:29.741Z,21.00
2023-05-14T13:32:56.210Z,20.85
2023-05-14T13:35:22.771Z,20.30
2023-05-14T13:37:49.398Z,20.03
2023-05-14T13:40:15.803Z,19.92
2023-05-14T13:42:42.320Z,19.89
2023-05-14T13:45:09.121Z,19.86
2023-05-14T13:47:35.944Z,19.95
2023-05-14T13:50:02.369Z,19.98
2023-05-14T13:52:28.845Z,20.08
2023-05-14T13:54:56.767Z,20.47
2023-05-14T13:57:23.324Z,19.96
2023-05-14T13:59:49.804Z,20.30
2023-05-14T14:02:16.282Z,20.30
2023-05-14T14:04:42.899Z,20.57
2023-05-14T14:07:09.442Z,21.11
2023-05-14T14:09:36.869Z,21.35
2023-05-14T14:12:04.517Z,21.34
2023-05-14T14:14:31.256Z,21.34
2023-05-14T14:16:57.726Z,21.56
2023-05-14T14:19:24.126Z,21.80
2023-05-14T14:24:22.026Z,21.68
2023-05-14T14:26:48.434Z,21.80
2023-05-14T14:29:14.880Z,21.82
2023-05-14T14:31:41.364Z,21.55
2023-05-14T14:34:07.810Z,21.87
2023-05-14T14:36:34.242Z,22.05
2023-05-14T14:39:00.678Z,22.31
2023-05-14T14:41:27.334Z,22.53
2023-05-14T14:43:53.839Z,22.48
2023-05-14T14:46:20.332Z,22.02
2023-05-14T14:48:46.788Z,21.83
2023-05-14T14:51:13.365Z,21.83
2023-05-14T14:53:40.478Z,21.86
2023-05-14T14:56:07.077Z,21.80
2023-05-14T14:58:33.608Z,22.21
2023-05-14T15:01:01.118Z,22.25
2023-05-14T15:03:27.780Z,22.22
2023-05-14T15:05:54.393Z,22.40
2023-05-14T15:08:25.507Z,22.42
2023-05-14T15:10:52.098Z,22.26
2023-05-14T15:13:18.852Z,22.09
2023-05-14T15:15:45.290Z,22.00
2023-05-14T15:18:11.897Z,22.15
2023-05-14T15:20:41.390Z,21.96
2023-05-14T15:23:07.866Z,21.50
2023-05-14T15:25:34.461Z,21.65
2023-05-14T15:28:00.884Z,21.68
2023-05-14T15:30:27.350Z,21.47
2023-05-14T15:32:53.980Z,21.38
2023-05-14T15:35:20.432Z,21.38
2023-05-14T15:37:46.900Z,21.38
2023-05-14T15:40:13.399Z,21.33
2023-05-14T15:42:44.756Z,21.29
2023-05-14T15:45:13.038Z,21.21
2023-05-14T15:47:40.300Z,21.27
2023-05-14T15:50:07.697Z,21.23
2023-05-14T15:52:35.106Z,21.37
2023-05-14T15:55:01.775Z,21.49
2023-05-14T15:57:28.285Z,21.54
2023-05-14T15:59:54.761Z,21.40
2023-05-14T16:02:21.190Z,21.23
2023-05-14T16:04:49.479Z,20.96
2023-05-14T16:07:16.071Z,21.03
2023-05-14T16:09:42.564Z,21.14
2023-05-14T16:12:09.279Z,21.17
2023-05-14T16:14:38.606Z,21.28
2023-05-14T16:17:06.424Z,21.29
2023-05-14T16:19:32.904Z,21.16
2023-05-14T16:21:59.370Z,21.04
2023-05-14T16:24:25.766Z,20.88
2023-05-14T16:26:52.164Z,20.85
2023-05-14T16:29:18.633Z,20.61
2023-05-14T16:31:45.112Z,20.53
2023-05-14T16:34:11.683Z,19.86
2023-05-14T16:36:38.124Z,19.57
2023-05-14T16:39:07.804Z,19.36
2023-05-14T16:41:35.443Z,19.13
2023-05-14T16:44:01.916Z,18.61
2023-05-14T16:46:29.395Z,18.10
2023-05-14T16:48:56.163Z,17.87
2023-05-14T16:51:22.749Z,17.88
2023-05-14T16:53:49.246Z,18.06
2023-05-14T16:56:15.668Z,17.94
2023-05-14T16:58:42.335Z,18.05
2023-05-14T17:01:09.896Z,17.97
2023-05-14T17:03:36.829Z,18.13
2023-05-14T17:06:04.561Z,18.12
2023-05-14T17:08:33.491Z,17.93
2023-05-14T17:11:00.099Z,17.94
2023-05-14T17:13:26.704Z,17.98
2023-05-14T17:15:53.151Z,17.77
2023-05-14T17:18:19.640Z,17.46
2023-05-14T17:20:46.555Z,17.61
2023-05-14T17:23:13.459Z,17.67
2023-05-14T17:25:39.921Z,17.67
2023-05-14T17:28:06.599Z,17.59
2023-05-14T17:30:33.056Z,17.79
2023-05-14T17:32:59.840Z,17.59
2023-05-14T17:35:26.436Z,17.62
2023-05-14T17:37:52.960Z,17.61
2023-05-14T17:40:19.429Z,17.41
2023-05-14T17:42:46.290Z,17.39
2023-05-14T17:45:13.453Z,17.50
2023-05-14T17:47:40.248Z,17.61
2023-05-14T17:50:07.286Z,17.59
2023-05-14T17:52:33.766Z,17.49
2023-05-14T17:55:00.360Z,17.51
2023-05-14T17:57:27.014Z,17.49
2023-05-14T17:59:53.433Z,17.46
2023-05-14T18:02:19.875Z,17.55
2023-05-14T18:04:46.924Z,17.43
2023-05-14T18:07:13.499Z,17.29
2023-05-14T18:09:39.894Z,17.13
2023-05-14T18:12:06.847Z,17.13
2023-05-14T18:14:33.254Z,17.04
2023-05-14T18:16:59.692Z,17.01
2023-05-14T18:19:26.151Z,17.07
2023-05-14T18:21:55.251Z,17.07
2023-05-14T18:24:22.215Z,17.09
2023-05-14T18:26:48.683Z,17.05
2023-05-14T18:29:15.149Z,17.02
2023-05-14T18:31:41.564Z,17.09
2023-05-14T18:34:08.262Z,17.01
2023-05-14T18:36:34.698Z,17.06
2023-05-14T18:39:01.089Z,16.97
2023-05-14T18:41:27.599Z,16.99
2023-05-14T18:43:54.007Z,17.05
2023-05-14T18:46:20.540Z,17.07
2023-05-14T18:48:46.986Z,16.96
2023-05-14T18:51:13.439Z,17.04
2023-05-14T18:53:39.871Z,16.84
2023-05-14T18:56:06.378Z,16.80
2023-05-14T18:58:32.802Z,16.70
2023-05-14T19:00:59.257Z,16.57
2023-05-14T19:03:26.028Z,16.61
2023-05-14T19:05:53.380Z,16.76
2023-05-14T19:08:19.837Z,16.56
2023-05-14T19:10:46.600Z,16.59
2023-05-14T19:13:13.036Z,16.70
2023-05-14T19:15:39.686Z,16.76
2023-05-14T19:18:06.295Z,16.78
2023-05-14T19:20:32.876Z,16.77
2023-05-14T19:22:59.307Z,16.68
2023-05-14T19:25:26.027Z,16.68
2023-05-14T19:27:53.611Z,16.61
2023-05-14T19:30:20.645Z,16.61
2023-05-14T19:32:47.119Z,16.46
2023-05-14T19:35:13.555Z,16.18
2023-05-14T19:37:39.992Z,16.36
2023-05-14T19:40:06.992Z,16.32
2023-05-14T19:42:33.426Z,16.08
2023-05-14T19:44:59.825Z,16.29
2023-05-14T19:47:27.425Z,16.33
2023-05-14T19:49:53.855Z,16.32
2023-05-14T19:52:20.320Z,16.17
2023-05-14T19:54:46.723Z,16.18
2023-05-14T19:57:13.155Z,16.12
2023-05-14T19:59:40.287Z,16.09
2023-05-14T20:02:07.729Z,16.11
2023-05-14T20:04:34.813Z,15.89
2023-05-14T20:07:01.509Z,15.81
2023-05-14T20:09:27.953Z,15.84
2023-05-14T20:11:54.413Z,15.80
2023-05-14T20:14:20.820Z,15.91
2023-05-14T20:16:48.867Z,15.94
2023-05-14T20:19:16.209Z,15.69
2023-05-14T20:21:42.776Z,15.80
2023-05-14T20:24:09.221Z,15.89
2023-05-14T20:26:35.789Z,15.87
2023-05-14T20:29:02.221Z,15.87
2023-05-14T20:31:29.045Z,15.91
2023-05-14T20:33:55.517Z,15.83
2023-05-14T20:36:22.234Z,15.83
2023-05-14T20:38:48.802Z,15.89
2023-05-14T20:41:15.215Z,15.89
2023-05-14T20:43:41.637Z,15.94
2023-05-14T20:46:08.995Z,15.94
2023-05-14T20:48:35.473Z,15.96
2023-05-14T20:51:04.684Z,15.96
2023-05-14T20:53:31.185Z,15.94
2023-05-14T20:55:58.835Z,15.92
2023-05-14T20:58:25.341Z,15.93
2023-05-14T21:00:51.806Z,15.90
2023-05-14T21:03:18.442Z,15.86
2023-05-14T21:05:44.991Z,15.87
2023-05-14T21:08:11.590Z,15.80
2023-05-14T21:10:38.043Z,15.65
2023-05-14T21:13:04.492Z,15.78
2023-05-14T21:15:31.378Z,15.78
2023-05-14T21:17:57.839Z,15.76
2023-05-14T21:20:24.262Z,15.78
2023-05-14T21:22:50.716Z,15.77
2023-05-14T21:25:17.177Z,15.71
2023-05-14T21:27:43.574Z,15.64
2023-05-14T21:30:10.614Z,15.65
2023-05-14T21:32:37.203Z,15.55
2023-05-14T21:35:03.788Z,15.66
2023-05-14T21:37:30.260Z,15.70
2023-05-14T21:39:56.649Z,15.69
2023-05-14T21:42:23.246Z,15.70
2023-05-14T21:44:49.785Z,15.73
2023-05-14T21:47:16.382Z,15.64
2023-05-14T21:49:43.181Z,15.70
2023-05-14T21:52:09.640Z,15.69
2023-05-14T21:54:36.053Z,15.74
2023-05-14T21:57:02.707Z,15.74
2023-05-14T21:59:29.122Z,15.69
2023-05-14T22:02:06.915Z,15.63
2023-05-14T22:04:35.060Z,15.59
2023-05-14T22:07:01.574Z,15.57
2023-05-14T22:09:28.016Z,15.60
2023-05-14T22:11:54.471Z,15.57
2023-05-14T22:14:20.856Z,15.55
2023-05-14T22:16:47.311Z,15.53
2023-05-14T22:19:16.614Z,15.51
2023-05-14T22:21:43.156Z,15.50
2023-05-14T22:24:09.534Z,15.44
2023-05-14T22:26:35.980Z,15.44
2023-05-14T22:29:02.501Z,15.38
2023-05-14T22:31:29.352Z,15.14
2023-05-14T22:33:55.834Z,15.10
2023-05-14T22:36:22.230Z,15.23
2023-05-14T22:38:48.660Z,15.13
2023-05-14T22:41:17.361Z,15.04
2023-05-14T22:43:43.826Z,15.03
2023-05-14T22:46:10.354Z,14.99
2023-05-14T22:48:36.833Z,15.06
2023-05-14T22:51:03.260Z,14.93
2023-05-14T22:53:29.743Z,14.78
2023-05-14T22:55:56.740Z,14.89
2023-05-14T22:58:23.213Z,14.83
2023-05-14T23:00:49.970Z,14.95
2023-05-14T23:03:16.475Z,14.96
2023-05-14T23:05:43.001Z,14.95
2023-05-14T23:08:09.515Z,14.94
2023-05-14T23:10:35.931Z,14.89
2023-05-14T23:13:04.565Z,14.88
2023-05-14T23:15:31.285Z,14.88
2023-05-14T23:17:57.787Z,14.89
2023-05-14T23:20:24.386Z,14.80
2023-05-14T23:22:50.838Z,14.66
2023-05-14T23:25:17.240Z,14.61
2023-05-14T23:27:43.673Z,14.61
2023-05-14T23:30:10.745Z,14.45
2023-05-14T23:32:37.217Z,14.49
2023-05-14T23:35:03.997Z,14.47
2023-05-14T23:37:30.490Z,14.46
2023-05-14T23:39:56.989Z,14.35
2023-05-14T23:42:24.656Z,14.32
2023-05-14T23:44:51.059Z,14.28
2023-05-14T23:47:17.483Z,14.20
2023-05-14T23:49:43.908Z,14.25
2023-05-14T23:52:11.296Z,14.13
2023-05-14T23:54:38.798Z,14.04
2023-05-14T23:57:05.450Z,13.91
2023-05-14T23:59:34.989Z,14.02
